sensor_id;sensor_type;location;lat;lon;timestamp;temperature;humidity
76855;DHT22;66343;44.588;33.450;2023-06-04T00:01:56;18.81;77.05
76855;DHT22;66343;44.588;33.450;2023-06-04T00:04:25;18.84;76.98
76855;DHT22;66343;44.588;33.450;2023-06-04T00:06:56;18.87;76.97
76855;DHT22;66343;44.588;33.450;2023-06-04T00:09:28;18.92;76.86
76855;DHT22;66343;44.588;33.450;2023-06-04T00:12:01;18.97;76.71
76855;DHT22;66343;44.588;33.450;2023-06-04T00:14:34;18.99;76.66
76855;DHT22;66343;44.588;33.450;2023-06-04T00:17:04;19.00;76.55
76855;DHT22;66343;44.588;33.450;2023-06-04T00:19:36;18.96;76.66
76855;DHT22;66343;44.588;33.450;2023-06-04T00:22:05;18.94;76.57
76855;DHT22;66343;44.588;33.450;2023-06-04T00:24:38;18.92;76.38
76855;DHT22;66343;44.588;33.450;2023-06-04T00:27:10;18.94;76.37
76855;DHT22;66343;44.588;33.450;2023-06-04T00:29:44;18.96;76.09
76855;DHT22;66343;44.588;33.450;2023-06-04T00:32:16;18.95;75.67
76855;DHT22;66343;44.588;33.450;2023-06-04T00:34:54;18.93;75.57
76855;DHT22;66343;44.588;33.450;2023-06-04T00:37:25;18.92;75.52
76855;DHT22;66343;44.588;33.450;2023-06-04T00:39:58;18.91;75.66
76855;DHT22;66343;44.588;33.450;2023-06-04T00:42:38;18.89;75.77
76855;DHT22;66343;44.588;33.450;2023-06-04T00:45:11;18.88;75.85
76855;DHT22;66343;44.588;33.450;2023-06-04T00:47:48;18.89;75.92
76855;DHT22;66343;44.588;33.450;2023-06-04T00:50:24;18.87;76.29
76855;DHT22;66343;44.588;33.450;2023-06-04T00:52:57;18.89;76.42
76855;DHT22;66343;44.588;33.450;2023-06-04T00:55:28;18.85;76.92
76855;DHT22;66343;44.588;33.450;2023-06-04T00:58:02;18.85;76.98
76855;DHT22;66343;44.588;33.450;2023-06-04T01:00:39;18.84;77.06
76855;DHT22;66343;44.588;33.450;2023-06-04T01:03:18;18.84;77.05
76855;DHT22;66343;44.588;33.450;2023-06-04T01:08:36;18.84;77.18
76855;DHT22;66343;44.588;33.450;2023-06-04T01:11:13;18.78;77.47
76855;DHT22;66343;44.588;33.450;2023-06-04T01:13:49;18.79;77.48
76855;DHT22;66343;44.588;33.450;2023-06-04T01:16:22;18.79;77.56
76855;DHT22;66343;44.588;33.450;2023-06-04T01:19:01;18.79;77.60
76855;DHT22;66343;44.588;33.450;2023-06-04T01:21:35;18.82;77.51
76855;DHT22;66343;44.588;33.450;2023-06-04T01:24:15;18.82;77.53
76855;DHT22;66343;44.588;33.450;2023-06-04T01:26:46;18.85;77.58
76855;DHT22;66343;44.588;33.450;2023-06-04T01:29:15;18.84;77.58
76855;DHT22;66343;44.588;33.450;2023-06-04T01:31:52;18.85;77.70
76855;DHT22;66343;44.588;33.450;2023-06-04T01:34:30;18.86;77.81
76855;DHT22;66343;44.588;33.450;2023-06-04T01:37:00;18.85;77.97
76855;DHT22;66343;44.588;33.450;2023-06-04T01:39:32;18.87;78.15
76855;DHT22;66343;44.588;33.450;2023-06-04T01:42:07;18.91;78.11
76855;DHT22;66343;44.588;33.450;2023-06-04T01:44:40;18.89;78.40
76855;DHT22;66343;44.588;33.450;2023-06-04T01:47:12;18.94;78.29
76855;DHT22;66343;44.588;33.450;2023-06-04T01:49:51;18.94;78.79
76855;DHT22;66343;44.588;33.450;2023-06-04T01:52:23;18.96;79.11
76855;DHT22;66343;44.588;33.450;2023-06-04T01:55:01;18.98;79.55
76855;DHT22;66343;44.588;33.450;2023-06-04T01:57:33;19.01;79.68
76855;DHT22;66343;44.588;33.450;2023-06-04T02:00:06;18.96;79.97
76855;DHT22;66343;44.588;33.450;2023-06-04T02:02:49;18.95;79.76
76855;DHT22;66343;44.588;33.450;2023-06-04T02:05:21;18.94;79.66
76855;DHT22;66343;44.588;33.450;2023-06-04T02:07:55;18.94;79.46
76855;DHT22;66343;44.588;33.450;2023-06-04T02:10:29;18.97;79.17
76855;DHT22;66343;44.588;33.450;2023-06-04T02:13:01;18.97;79.16
76855;DHT22;66343;44.588;33.450;2023-06-04T02:15:38;18.95;79.19
76855;DHT22;66343;44.588;33.450;2023-06-04T02:18:15;18.94;78.96
76855;DHT22;66343;44.588;33.450;2023-06-04T02:20:46;18.93;78.96
76855;DHT22;66343;44.588;33.450;2023-06-04T02:23:25;18.97;78.73
76855;DHT22;66343;44.588;33.450;2023-06-04T02:25:59;18.99;78.88
76855;DHT22;66343;44.588;33.450;2023-06-04T02:28:31;19.00;79.01
76855;DHT22;66343;44.588;33.450;2023-06-04T02:31:00;18.99;79.00
76855;DHT22;66343;44.588;33.450;2023-06-04T02:33:30;18.96;78.94
76855;DHT22;66343;44.588;33.450;2023-06-04T02:35:59;18.96;78.89
76855;DHT22;66343;44.588;33.450;2023-06-04T02:38:34;18.97;78.84
76855;DHT22;66343;44.588;33.450;2023-06-04T02:41:11;18.95;78.54
76855;DHT22;66343;44.588;33.450;2023-06-04T02:43:45;18.94;78.47
76855;DHT22;66343;44.588;33.450;2023-06-04T02:46:19;18.92;78.56
76855;DHT22;66343;44.588;33.450;2023-06-04T02:48:54;18.92;78.55
76855;DHT22;66343;44.588;33.450;2023-06-04T02:51:26;18.94;78.44
76855;DHT22;66343;44.588;33.450;2023-06-04T02:54:03;18.93;78.40
76855;DHT22;66343;44.588;33.450;2023-06-04T02:56:36;18.95;78.43
76855;DHT22;66343;44.588;33.450;2023-06-04T02:59:09;18.97;78.23
76855;DHT22;66343;44.588;33.450;2023-06-04T03:01:49;18.96;78.13
76855;DHT22;66343;44.588;33.450;2023-06-04T03:04:22;18.99;77.90
76855;DHT22;66343;44.588;33.450;2023-06-04T03:07:04;19.02;77.71
76855;DHT22;66343;44.588;33.450;2023-06-04T03:09:38;19.03;77.69
76855;DHT22;66343;44.588;33.450;2023-06-04T03:12:14;19.08;77.45
76855;DHT22;66343;44.588;33.450;2023-06-04T03:14:51;19.08;77.67
76855;DHT22;66343;44.588;33.450;2023-06-04T03:17:26;19.07;77.60
76855;DHT22;66343;44.588;33.450;2023-06-04T03:19:56;19.08;77.47
76855;DHT22;66343;44.588;33.450;2023-06-04T03:22:25;19.06;77.56
76855;DHT22;66343;44.588;33.450;2023-06-04T03:24:58;19.05;77.69
76855;DHT22;66343;44.588;33.450;2023-06-04T03:27:28;19.06;77.71
76855;DHT22;66343;44.588;33.450;2023-06-04T03:30:00;19.03;77.81
76855;DHT22;66343;44.588;33.450;2023-06-04T03:32:43;19.06;77.87
76855;DHT22;66343;44.588;33.450;2023-06-04T03:35:15;19.03;77.40
76855;DHT22;66343;44.588;33.450;2023-06-04T03:37:50;19.06;76.95
76855;DHT22;66343;44.588;33.450;2023-06-04T03:40:22;19.06;76.66
76855;DHT22;66343;44.588;33.450;2023-06-04T03:42:53;19.03;76.52
76855;DHT22;66343;44.588;33.450;2023-06-04T03:45:33;19.05;76.49
76855;DHT22;66343;44.588;33.450;2023-06-04T03:48:09;19.01;76.65
76855;DHT22;66343;44.588;33.450;2023-06-04T03:50:42;18.96;76.62
76855;DHT22;66343;44.588;33.450;2023-06-04T03:53:18;18.99;76.71
76855;DHT22;66343;44.588;33.450;2023-06-04T03:55:52;19.00;76.63
76855;DHT22;66343;44.588;33.450;2023-06-04T03:58:24;19.01;76.41
76855;DHT22;66343;44.588;33.450;2023-06-04T04:00:57;19.03;76.26
76855;DHT22;66343;44.588;33.450;2023-06-04T04:03:29;19.05;76.40
76855;DHT22;66343;44.588;33.450;2023-06-04T04:06:05;18.99;76.57
76855;DHT22;66343;44.588;33.450;2023-06-04T04:08:38;18.96;76.85
76855;DHT22;66343;44.588;33.450;2023-06-04T04:11:16;19.00;76.53
76855;DHT22;66343;44.588;33.450;2023-06-04T04:13:54;18.97;76.35
76855;DHT22;66343;44.588;33.450;2023-06-04T04:16:24;18.94;76.63
76855;DHT22;66343;44.588;33.450;2023-06-04T04:18:57;18.91;76.86
76855;DHT22;66343;44.588;33.450;2023-06-04T04:21:32;18.86;76.73
76855;DHT22;66343;44.588;33.450;2023-06-04T04:24:06;18.83;76.89
76855;DHT22;66343;44.588;33.450;2023-06-04T04:26:39;18.82;76.93
76855;DHT22;66343;44.588;33.450;2023-06-04T04:29:12;18.85;76.74
76855;DHT22;66343;44.588;33.450;2023-06-04T04:31:46;18.86;76.53
76855;DHT22;66343;44.588;33.450;2023-06-04T04:34:18;18.80;76.82
76855;DHT22;66343;44.588;33.450;2023-06-04T04:36:55;18.78;76.76
76855;DHT22;66343;44.588;33.450;2023-06-04T04:39:29;18.77;76.54
76855;DHT22;66343;44.588;33.450;2023-06-04T04:42:05;18.73;76.60
76855;DHT22;66343;44.588;33.450;2023-06-04T04:44:41;18.78;76.42
76855;DHT22;66343;44.588;33.450;2023-06-04T04:47:16;18.81;76.09
76855;DHT22;66343;44.588;33.450;2023-06-04T04:49:47;18.82;76.18
76855;DHT22;66343;44.588;33.450;2023-06-04T04:52:20;18.84;76.16
76855;DHT22;66343;44.588;33.450;2023-06-04T04:54:53;18.85;75.78
76855;DHT22;66343;44.588;33.450;2023-06-04T04:57:30;18.86;75.89
76855;DHT22;66343;44.588;33.450;2023-06-04T05:00:07;18.93;75.63
76855;DHT22;66343;44.588;33.450;2023-06-04T05:02:43;18.97;75.51
76855;DHT22;66343;44.588;33.450;2023-06-04T05:05:17;18.98;75.06
76855;DHT22;66343;44.588;33.450;2023-06-04T05:07:49;19.02;75.06
76855;DHT22;66343;44.588;33.450;2023-06-04T05:10:25;19.03;75.11
76855;DHT22;66343;44.588;33.450;2023-06-04T05:13:03;19.10;74.96
76855;DHT22;66343;44.588;33.450;2023-06-04T05:15:46;19.17;74.74
76855;DHT22;66343;44.588;33.450;2023-06-04T05:18:22;19.18;74.47
76855;DHT22;66343;44.588;33.450;2023-06-04T05:21:06;19.26;74.25
76855;DHT22;66343;44.588;33.450;2023-06-04T05:23:43;19.30;73.98
76855;DHT22;66343;44.588;33.450;2023-06-04T05:26:21;19.38;73.64
76855;DHT22;66343;44.588;33.450;2023-06-04T05:28:54;19.41;73.78
76855;DHT22;66343;44.588;33.450;2023-06-04T05:31:35;19.46;73.34
76855;DHT22;66343;44.588;33.450;2023-06-04T05:34:11;19.46;73.24
76855;DHT22;66343;44.588;33.450;2023-06-04T05:36:47;19.44;73.37
76855;DHT22;66343;44.588;33.450;2023-06-04T05:39:20;19.38;73.48
76855;DHT22;66343;44.588;33.450;2023-06-04T05:42:11;19.40;73.77
76855;DHT22;66343;44.588;33.450;2023-06-04T05:44:49;19.39;73.42
76855;DHT22;66343;44.588;33.450;2023-06-04T05:47:26;19.33;73.77
76855;DHT22;66343;44.588;33.450;2023-06-04T05:50:00;19.35;74.12
76855;DHT22;66343;44.588;33.450;2023-06-04T05:52:34;19.45;74.17
76855;DHT22;66343;44.588;33.450;2023-06-04T05:55:31;19.52;73.18
76855;DHT22;66343;44.588;33.450;2023-06-04T05:58:03;19.52;73.02
76855;DHT22;66343;44.588;33.450;2023-06-04T06:00:37;19.57;72.95
76855;DHT22;66343;44.588;33.450;2023-06-04T06:03:09;19.60;72.58
76855;DHT22;66343;44.588;33.450;2023-06-04T06:05:49;19.56;72.35
76855;DHT22;66343;44.588;33.450;2023-06-04T06:08:26;19.50;72.79
76855;DHT22;66343;44.588;33.450;2023-06-04T06:11:01;19.52;72.85
76855;DHT22;66343;44.588;33.450;2023-06-04T06:13:40;19.60;72.27
76855;DHT22;66343;44.588;33.450;2023-06-04T06:16:11;19.68;72.61
76855;DHT22;66343;44.588;33.450;2023-06-04T06:18:49;19.79;72.07
76855;DHT22;66343;44.588;33.450;2023-06-04T06:21:26;19.84;71.62
76855;DHT22;66343;44.588;33.450;2023-06-04T06:24:03;19.90;71.65
76855;DHT22;66343;44.588;33.450;2023-06-04T06:26:33;19.85;71.70
76855;DHT22;66343;44.588;33.450;2023-06-04T06:29:11;19.86;71.81
76855;DHT22;66343;44.588;33.450;2023-06-04T06:31:44;19.96;71.79
76855;DHT22;66343;44.588;33.450;2023-06-04T06:34:17;19.87;71.52
76855;DHT22;66343;44.588;33.450;2023-06-04T06:36:50;19.86;71.61
76855;DHT22;66343;44.588;33.450;2023-06-04T06:39:23;19.89;71.75
76855;DHT22;66343;44.588;33.450;2023-06-04T06:41:56;19.81;71.16
76855;DHT22;66343;44.588;33.450;2023-06-04T06:44:38;19.76;71.76
76855;DHT22;66343;44.588;33.450;2023-06-04T06:47:15;19.81;72.31
76855;DHT22;66343;44.588;33.450;2023-06-04T06:49:46;19.91;71.88
76855;DHT22;66343;44.588;33.450;2023-06-04T06:52:16;20.07;71.51
76855;DHT22;66343;44.588;33.450;2023-06-04T06:54:48;19.97;71.13
76855;DHT22;66343;44.588;33.450;2023-06-04T06:57:18;19.87;71.25
76855;DHT22;66343;44.588;33.450;2023-06-04T06:59:49;19.87;71.07
76855;DHT22;66343;44.588;33.450;2023-06-04T07:02:22;19.88;71.42
76855;DHT22;66343;44.588;33.450;2023-06-04T07:04:52;19.86;71.61
76855;DHT22;66343;44.588;33.450;2023-06-04T07:07:24;19.88;71.22
76855;DHT22;66343;44.588;33.450;2023-06-04T07:09:56;19.88;71.21
76855;DHT22;66343;44.588;33.450;2023-06-04T07:12:29;19.89;71.31
76855;DHT22;66343;44.588;33.450;2023-06-04T07:15:01;19.91;71.11
76855;DHT22;66343;44.588;33.450;2023-06-04T07:17:34;19.84;71.78
76855;DHT22;66343;44.588;33.450;2023-06-04T07:20:09;19.92;71.95
76855;DHT22;66343;44.588;33.450;2023-06-04T07:22:49;19.95;70.58
76855;DHT22;66343;44.588;33.450;2023-06-04T07:25:21;19.83;71.31
76855;DHT22;66343;44.588;33.450;2023-06-04T07:27:57;19.90;71.03
76855;DHT22;66343;44.588;33.450;2023-06-04T07:30:32;20.04;71.01
76855;DHT22;66343;44.588;33.450;2023-06-04T07:33:02;20.14;71.03
76855;DHT22;66343;44.588;33.450;2023-06-04T07:35:33;20.19;70.43
76855;DHT22;66343;44.588;33.450;2023-06-04T07:38:09;20.22;69.91
76855;DHT22;66343;44.588;33.450;2023-06-04T07:40:45;20.36;70.12
76855;DHT22;66343;44.588;33.450;2023-06-04T07:43:19;20.48;68.65
76855;DHT22;66343;44.588;33.450;2023-06-04T07:45:59;20.51;69.20
76855;DHT22;66343;44.588;33.450;2023-06-04T07:48:33;20.49;68.71
76855;DHT22;66343;44.588;33.450;2023-06-04T07:51:08;20.57;68.81
76855;DHT22;66343;44.588;33.450;2023-06-04T07:53:37;20.64;67.81
76855;DHT22;66343;44.588;33.450;2023-06-04T07:56:09;20.64;67.43
76855;DHT22;66343;44.588;33.450;2023-06-04T07:58:43;20.61;67.94
76855;DHT22;66343;44.588;33.450;2023-06-04T08:01:22;20.69;67.97
76855;DHT22;66343;44.588;33.450;2023-06-04T08:03:56;20.66;67.46
76855;DHT22;66343;44.588;33.450;2023-06-04T08:06:31;20.62;67.42
76855;DHT22;66343;44.588;33.450;2023-06-04T08:09:10;20.54;66.89
76855;DHT22;66343;44.588;33.450;2023-06-04T08:11:45;20.53;67.31
76855;DHT22;66343;44.588;33.450;2023-06-04T08:14:16;20.47;67.49
76855;DHT22;66343;44.588;33.450;2023-06-04T08:16:53;20.41;67.56
76855;DHT22;66343;44.588;33.450;2023-06-04T08:19:32;20.43;67.97
76855;DHT22;66343;44.588;33.450;2023-06-04T08:22:13;20.61;67.73
76855;DHT22;66343;44.588;33.450;2023-06-04T08:25:01;20.65;67.64
76855;DHT22;66343;44.588;33.450;2023-06-04T08:27:56;20.62;66.97
76855;DHT22;66343;44.588;33.450;2023-06-04T08:30:52;20.59;66.99
76855;DHT22;66343;44.588;33.450;2023-06-04T08:33:37;20.55;67.21
76855;DHT22;66343;44.588;33.450;2023-06-04T08:36:20;20.53;67.19
76855;DHT22;66343;44.588;33.450;2023-06-04T08:38:53;20.55;67.34
76855;DHT22;66343;44.588;33.450;2023-06-04T08:41:30;20.59;67.18
76855;DHT22;66343;44.588;33.450;2023-06-04T08:44:09;20.56;67.24
76855;DHT22;66343;44.588;33.450;2023-06-04T08:46:46;20.63;66.93
76855;DHT22;66343;44.588;33.450;2023-06-04T08:49:19;20.70;66.59
76855;DHT22;66343;44.588;33.450;2023-06-04T08:51:55;20.65;66.70
76855;DHT22;66343;44.588;33.450;2023-06-04T08:54:29;20.57;66.70
76855;DHT22;66343;44.588;33.450;2023-06-04T08:57:08;20.62;66.89
76855;DHT22;66343;44.588;33.450;2023-06-04T08:59:47;20.69;66.36
76855;DHT22;66343;44.588;33.450;2023-06-04T09:02:27;20.75;66.50
76855;DHT22;66343;44.588;33.450;2023-06-04T09:04:57;20.85;66.43
76855;DHT22;66343;44.588;33.450;2023-06-04T09:07:42;20.74;66.31
76855;DHT22;66343;44.588;33.450;2023-06-04T09:10:33;20.83;66.03
76855;DHT22;66343;44.588;33.450;2023-06-04T09:13:07;20.85;66.03
76855;DHT22;66343;44.588;33.450;2023-06-04T09:16:06;20.89;65.34
76855;DHT22;66343;44.588;33.450;2023-06-04T09:19:03;21.07;65.84
76855;DHT22;66343;44.588;33.450;2023-06-04T09:21:57;21.20;64.72
76855;DHT22;66343;44.588;33.450;2023-06-04T09:25:02;21.35;64.68
76855;DHT22;66343;44.588;33.450;2023-06-04T09:27:42;21.34;64.42
76855;DHT22;66343;44.588;33.450;2023-06-04T09:30:17;21.39;64.79
76855;DHT22;66343;44.588;33.450;2023-06-04T09:32:52;21.43;64.66
76855;DHT22;66343;44.588;33.450;2023-06-04T09:35:22;21.52;65.30
76855;DHT22;66343;44.588;33.450;2023-06-04T09:37:57;21.50;64.19
76855;DHT22;66343;44.588;33.450;2023-06-04T09:40:37;21.49;64.06
76855;DHT22;66343;44.588;33.450;2023-06-04T09:43:23;21.38;64.53
76855;DHT22;66343;44.588;33.450;2023-06-04T09:46:07;21.38;64.37
76855;DHT22;66343;44.588;33.450;2023-06-04T09:48:38;21.35;63.95
76855;DHT22;66343;44.588;33.450;2023-06-04T09:51:11;21.54;65.60
76855;DHT22;66343;44.588;33.450;2023-06-04T09:53:53;21.67;64.69
76855;DHT22;66343;44.588;33.450;2023-06-04T09:56:27;21.66;63.15
76855;DHT22;66343;44.588;33.450;2023-06-04T09:59:04;21.69;63.69
76855;DHT22;66343;44.588;33.450;2023-06-04T10:01:43;21.69;62.60
76855;DHT22;66343;44.588;33.450;2023-06-04T10:04:13;21.70;62.91
76855;DHT22;66343;44.588;33.450;2023-06-04T10:06:43;21.76;63.08
76855;DHT22;66343;44.588;33.450;2023-06-04T10:09:17;21.93;62.18
76855;DHT22;66343;44.588;33.450;2023-06-04T10:11:56;21.91;62.82
76855;DHT22;66343;44.588;33.450;2023-06-04T10:14:34;21.98;62.34
76855;DHT22;66343;44.588;33.450;2023-06-04T10:17:09;22.02;61.22
76855;DHT22;66343;44.588;33.450;2023-06-04T10:19:43;21.97;61.56
76855;DHT22;66343;44.588;33.450;2023-06-04T10:22:13;22.11;61.48
76855;DHT22;66343;44.588;33.450;2023-06-04T10:24:43;22.22;61.09
76855;DHT22;66343;44.588;33.450;2023-06-04T10:27:13;22.38;60.80
76855;DHT22;66343;44.588;33.450;2023-06-04T10:29:49;22.49;60.71
76855;DHT22;66343;44.588;33.450;2023-06-04T10:32:19;22.53;59.95
76855;DHT22;66343;44.588;33.450;2023-06-04T10:34:53;22.60;59.28
76855;DHT22;66343;44.588;33.450;2023-06-04T10:37:27;22.66;58.84
76855;DHT22;66343;44.588;33.450;2023-06-04T10:42:41;22.88;58.46
76855;DHT22;66343;44.588;33.450;2023-06-04T10:45:17;22.95;58.41
76855;DHT22;66343;44.588;33.450;2023-06-04T10:48:00;22.97;57.78
76855;DHT22;66343;44.588;33.450;2023-06-04T10:50:35;23.05;57.79
76855;DHT22;66343;44.588;33.450;2023-06-04T10:53:05;23.05;58.12
76855;DHT22;66343;44.588;33.450;2023-06-04T10:55:49;23.02;57.65
76855;DHT22;66343;44.588;33.450;2023-06-04T10:58:34;23.13;57.09
76855;DHT22;66343;44.588;33.450;2023-06-04T11:01:25;23.13;57.43
76855;DHT22;66343;44.588;33.450;2023-06-04T11:03:58;23.24;57.29
76855;DHT22;66343;44.588;33.450;2023-06-04T11:06:31;23.35;56.66
76855;DHT22;66343;44.588;33.450;2023-06-04T11:09:05;23.51;56.34
76855;DHT22;66343;44.588;33.450;2023-06-04T11:11:43;23.59;56.24
76855;DHT22;66343;44.588;33.450;2023-06-04T11:14:18;23.64;55.69
76855;DHT22;66343;44.588;33.450;2023-06-04T11:16:52;23.61;55.28
76855;DHT22;66343;44.588;33.450;2023-06-04T11:19:37;23.50;55.67
76855;DHT22;66343;44.588;33.450;2023-06-04T11:22:17;23.47;55.65
76855;DHT22;66343;44.588;33.450;2023-06-04T11:24:49;23.53;55.97
76855;DHT22;66343;44.588;33.450;2023-06-04T11:27:30;23.75;55.16
76855;DHT22;66343;44.588;33.450;2023-06-04T11:30:11;23.83;54.00
76855;DHT22;66343;44.588;33.450;2023-06-04T11:32:48;23.95;53.62
76855;DHT22;66343;44.588;33.450;2023-06-04T11:35:21;24.04;53.08
76855;DHT22;66343;44.588;33.450;2023-06-04T11:37:56;24.12;52.91
76855;DHT22;66343;44.588;33.450;2023-06-04T11:40:28;24.31;52.41
76855;DHT22;66343;44.588;33.450;2023-06-04T11:43:01;24.31;52.14
76855;DHT22;66343;44.588;33.450;2023-06-04T11:45:37;24.43;51.68
76855;DHT22;66343;44.588;33.450;2023-06-04T11:48:10;24.46;50.92
76855;DHT22;66343;44.588;33.450;2023-06-04T11:50:43;24.58;50.54
76855;DHT22;66343;44.588;33.450;2023-06-04T11:53:13;24.72;49.87
76855;DHT22;66343;44.588;33.450;2023-06-04T11:55:48;24.83;49.66
76855;DHT22;66343;44.588;33.450;2023-06-04T11:58:23;25.04;49.14
76855;DHT22;66343;44.588;33.450;2023-06-04T12:00:58;25.27;48.61
76855;DHT22;66343;44.588;33.450;2023-06-04T12:03:37;25.36;48.31
76855;DHT22;66343;44.588;33.450;2023-06-04T12:06:27;25.46;47.32
76855;DHT22;66343;44.588;33.450;2023-06-04T12:09:01;25.52;47.25
76855;DHT22;66343;44.588;33.450;2023-06-04T12:11:34;25.69;46.98
76855;DHT22;66343;44.588;33.450;2023-06-04T12:14:07;25.78;46.73
76855;DHT22;66343;44.588;33.450;2023-06-04T12:16:45;25.92;46.15
76855;DHT22;66343;44.588;33.450;2023-06-04T12:19:27;25.99;46.36
76855;DHT22;66343;44.588;33.450;2023-06-04T12:22:07;26.07;45.80
76855;DHT22;66343;44.588;33.450;2023-06-04T12:24:55;26.02;46.35
76855;DHT22;66343;44.588;33.450;2023-06-04T12:27:27;26.19;46.20
76855;DHT22;66343;44.588;33.450;2023-06-04T12:30:06;26.24;46.11
76855;DHT22;66343;44.588;33.450;2023-06-04T12:32:38;26.30;45.77
76855;DHT22;66343;44.588;33.450;2023-06-04T12:35:15;26.47;45.72
76855;DHT22;66343;44.588;33.450;2023-06-04T12:37:49;26.57;45.32
76855;DHT22;66343;44.588;33.450;2023-06-04T12:40:21;26.65;45.33
76855;DHT22;66343;44.588;33.450;2023-06-04T12:43:03;26.60;44.89
76855;DHT22;66343;44.588;33.450;2023-06-04T12:45:39;26.69;45.24
76855;DHT22;66343;44.588;33.450;2023-06-04T12:48:14;26.69;44.34
76855;DHT22;66343;44.588;33.450;2023-06-04T12:50:43;26.70;43.91
76855;DHT22;66343;44.588;33.450;2023-06-04T12:53:18;26.73;44.23
76855;DHT22;66343;44.588;33.450;2023-06-04T12:55:50;26.90;43.60
76855;DHT22;66343;44.588;33.450;2023-06-04T12:58:22;27.07;43.63
76855;DHT22;66343;44.588;33.450;2023-06-04T13:01:00;27.24;42.74
76855;DHT22;66343;44.588;33.450;2023-06-04T13:03:39;27.35;42.97
76855;DHT22;66343;44.588;33.450;2023-06-04T13:06:09;27.59;42.40
76855;DHT22;66343;44.588;33.450;2023-06-04T13:08:38;27.66;42.32
76855;DHT22;66343;44.588;33.450;2023-06-04T13:11:09;27.76;41.45
76855;DHT22;66343;44.588;33.450;2023-06-04T13:13:46;27.99;41.45
76855;DHT22;66343;44.588;33.450;2023-06-04T13:16:17;28.25;40.67
76855;DHT22;66343;44.588;33.450;2023-06-04T13:18:53;28.56;40.34
76855;DHT22;66343;44.588;33.450;2023-06-04T13:21:26;28.80;39.78
76855;DHT22;66343;44.588;33.450;2023-06-04T13:24:01;29.00;39.23
76855;DHT22;66343;44.588;33.450;2023-06-04T13:26:35;29.16;38.49
76855;DHT22;66343;44.588;33.450;2023-06-04T13:29:05;29.12;38.46
76855;DHT22;66343;44.588;33.450;2023-06-04T13:31:35;29.03;38.65
76855;DHT22;66343;44.588;33.450;2023-06-04T13:34:13;29.18;38.67
76855;DHT22;66343;44.588;33.450;2023-06-04T13:36:52;29.37;38.04
76855;DHT22;66343;44.588;33.450;2023-06-04T13:39:29;29.31;38.14
76855;DHT22;66343;44.588;33.450;2023-06-04T13:42:01;29.00;39.21
76855;DHT22;66343;44.588;33.450;2023-06-04T13:44:34;28.75;39.10
76855;DHT22;66343;44.588;33.450;2023-06-04T13:47:08;28.58;39.60
76855;DHT22;66343;44.588;33.450;2023-06-04T13:49:44;28.58;39.12
76855;DHT22;66343;44.588;33.450;2023-06-04T13:54:49;28.44;40.28
76855;DHT22;66343;44.588;33.450;2023-06-04T13:57:18;28.55;39.13
76855;DHT22;66343;44.588;33.450;2023-06-04T13:59:55;28.82;38.87
76855;DHT22;66343;44.588;33.450;2023-06-04T14:02:35;28.85;38.32
76855;DHT22;66343;44.588;33.450;2023-06-04T14:05:06;29.00;38.27
76855;DHT22;66343;44.588;33.450;2023-06-04T14:07:44;29.18;37.56
76855;DHT22;66343;44.588;33.450;2023-06-04T14:10:18;29.07;37.62
76855;DHT22;66343;44.588;33.450;2023-06-04T14:12:51;29.20;37.77
76855;DHT22;66343;44.588;33.450;2023-06-04T14:15:29;29.34;37.55
76855;DHT22;66343;44.588;33.450;2023-06-04T14:17:59;29.24;38.11
76855;DHT22;66343;44.588;33.450;2023-06-04T14:20:32;29.36;37.68
76855;DHT22;66343;44.588;33.450;2023-06-04T14:23:08;29.47;37.05
76855;DHT22;66343;44.588;33.450;2023-06-04T14:25:41;29.46;37.43
76855;DHT22;66343;44.588;33.450;2023-06-04T14:28:13;29.53;37.05
76855;DHT22;66343;44.588;33.450;2023-06-04T14:30:53;29.50;36.76
76855;DHT22;66343;44.588;33.450;2023-06-04T14:33:27;29.37;36.85
76855;DHT22;66343;44.588;33.450;2023-06-04T14:36:03;29.45;37.19
76855;DHT22;66343;44.588;33.450;2023-06-04T14:38:33;29.34;36.80
76855;DHT22;66343;44.588;33.450;2023-06-04T14:41:06;29.19;36.62
76855;DHT22;66343;44.588;33.450;2023-06-04T14:43:41;29.16;36.53
76855;DHT22;66343;44.588;33.450;2023-06-04T14:46:18;29.17;36.65
76855;DHT22;66343;44.588;33.450;2023-06-04T14:48:50;29.19;36.02
76855;DHT22;66343;44.588;33.450;2023-06-04T14:51:22;29.14;36.12
76855;DHT22;66343;44.588;33.450;2023-06-04T14:53:57;29.16;36.63
76855;DHT22;66343;44.588;33.450;2023-06-04T14:56:29;29.21;36.29
76855;DHT22;66343;44.588;33.450;2023-06-04T14:59:02;29.16;36.44
76855;DHT22;66343;44.588;33.450;2023-06-04T15:01:43;29.02;36.72
76855;DHT22;66343;44.588;33.450;2023-06-04T15:04:16;28.89;36.72
76855;DHT22;66343;44.588;33.450;2023-06-04T15:06:46;28.86;37.02
76855;DHT22;66343;44.588;33.450;2023-06-04T15:09:20;28.78;37.25
76855;DHT22;66343;44.588;33.450;2023-06-04T15:11:58;28.71;37.14
76855;DHT22;66343;44.588;33.450;2023-06-04T15:14:27;28.60;37.01
76855;DHT22;66343;44.588;33.450;2023-06-04T15:17:05;28.56;37.80
76855;DHT22;66343;44.588;33.450;2023-06-04T15:19:36;28.59;37.23
76855;DHT22;66343;44.588;33.450;2023-06-04T15:22:05;28.60;37.66
76855;DHT22;66343;44.588;33.450;2023-06-04T15:24:37;28.37;37.39
76855;DHT22;66343;44.588;33.450;2023-06-04T15:27:11;28.12;37.75
76855;DHT22;66343;44.588;33.450;2023-06-04T15:29:50;27.95;38.98
76855;DHT22;66343;44.588;33.450;2023-06-04T15:32:22;27.87;38.76
76855;DHT22;66343;44.588;33.450;2023-06-04T15:34:56;27.80;38.69
76855;DHT22;66343;44.588;33.450;2023-06-04T15:37:27;27.72;38.85
76855;DHT22;66343;44.588;33.450;2023-06-04T15:39:59;27.71;38.48
76855;DHT22;66343;44.588;33.450;2023-06-04T15:42:34;27.69;38.07
76855;DHT22;66343;44.588;33.450;2023-06-04T15:45:04;27.74;38.08
76855;DHT22;66343;44.588;33.450;2023-06-04T15:47:36;27.78;37.93
76855;DHT22;66343;44.588;33.450;2023-06-04T15:50:12;27.66;37.94
76855;DHT22;66343;44.588;33.450;2023-06-04T15:52:49;27.78;37.90
76855;DHT22;66343;44.588;33.450;2023-06-04T15:55:19;27.76;37.83
76855;DHT22;66343;44.588;33.450;2023-06-04T15:57:51;27.70;37.69
76855;DHT22;66343;44.588;33.450;2023-06-04T16:00:21;27.65;37.90
76855;DHT22;66343;44.588;33.450;2023-06-04T16:02:54;27.67;37.26
76855;DHT22;66343;44.588;33.450;2023-06-04T16:05:28;27.59;37.69
76855;DHT22;66343;44.588;33.450;2023-06-04T16:08:00;27.50;37.95
76855;DHT22;66343;44.588;33.450;2023-06-04T16:10:35;27.46;38.08
76855;DHT22;66343;44.588;33.450;2023-06-04T16:13:08;27.55;37.79